Time;durP1;ratioP1;P1;durP2;ratioP2;P2;SDS_P1;SDS_P2;PMS_P1;PMS_P2;Temp;Humidity;BMP_temperature;BMP_pressure;BME280_temperature;BME280_humidity;BME280_pressure;Samples;Min_cycle;Max_cycle;Signal;HPM_P1;HPM_P2
2023/02/18 00:01:53;;;;;;;4.15;2.03;;;15.70;66.30;;;;;;2547520;53;21381;-81
2023/02/18 00:04:19;;;;;;;4.00;1.90;;;15.70;66.40;;;;;;2547611;53;20950;-81
2023/02/18 00:06:45;;;;;;;3.85;2.03;;;15.70;66.30;;;;;;2547755;53;21031;-82
2023/02/18 00:09:12;;;;;;;3.70;2.17;;;15.70;66.40;;;;;;2309747;53;20927;-82
2023/02/18 00:11:39;;;;;;;4.10;2.00;;;15.60;66.20;;;;;;2547080;53;21076;-81
2023/02/18 00:14:07;;;;;;;4.00;2.22;;;15.60;66.30;;;;;;2309399;53;21071;-82
2023/02/18 00:16:34;;;;;;;3.85;1.90;;;15.60;66.30;;;;;;2547293;53;20998;-81
2023/02/18 00:19:01;;;;;;;3.95;2.17;;;15.60;66.30;;;;;;2546437;53;20998;-82
2023/02/18 00:21:28;;;;;;;2.83;1.62;;;15.60;66.30;;;;;;2307833;53;20963;-81
2023/02/18 00:23:54;;;;;;;3.50;1.87;;;15.70;66.50;;;;;;2545708;53;21473;-82
2023/02/18 00:26:20;;;;;;;3.83;1.80;;;15.60;66.40;;;;;;2545711;53;22090;-81
2023/02/18 00:28:53;;;;;;;3.65;1.92;;;15.60;66.50;;;;;;2308233;53;20960;-81
2023/02/18 00:31:20;;;;;;;;;;;15.60;66.50;;;;;;2307557;53;21043;-82
2023/02/18 00:33:46;;;;;;;4.03;2.08;;;15.60;65.80;;;;;;2545711;53;20311;-81
2023/02/18 00:36:14;;;;;;;3.15;1.65;;;15.60;66.40;;;;;;2545620;53;21042;-81
2023/02/18 00:39:00;;;;;;;3.50;2.08;;;15.60;66.40;;;;;;2544917;53;20959;-81
2023/02/18 00:41:27;;;;;;;4.62;1.98;;;15.60;66.10;;;;;;2307616;53;21034;-82
2023/02/18 00:43:53;;;;;;;3.97;2.35;;;15.60;66.60;;;;;;2545090;53;21899;-81
2023/02/18 00:46:20;;;;;;;3.80;2.12;;;15.50;66.40;;;;;;2307631;53;21043;-81
2023/02/18 00:48:46;;;;;;;4.03;2.20;;;15.50;66.40;;;;;;2544510;53;20966;-83
2023/02/18 00:51:13;;;;;;;3.72;2.28;;;15.50;66.50;;;;;;2545403;53;20951;-82
2023/02/18 00:53:39;;;;;;;3.62;2.17;;;15.50;66.60;;;;;;2545078;53;21101;-82
2023/02/18 00:56:06;;;;;;;3.08;1.77;;;15.50;66.60;;;;;;2545673;53;20996;-82
2023/02/18 00:58:33;;;;;;;3.50;2.08;;;15.50;66.60;;;;;;2544191;53;21046;-81
2023/02/18 01:00:59;;;;;;;4.37;2.05;;;15.50;66.60;;;;;;2308092;53;22137;-81
2023/02/18 01:03:26;;;;;;;3.45;1.83;;;15.50;66.70;;;;;;2545404;53;20995;-81
2023/02/18 01:05:52;;;;;;;4.10;2.17;;;15.50;66.70;;;;;;2544933;53;21094;-81
2023/02/18 01:08:19;;;;;;;3.85;2.10;;;15.50;66.70;;;;;;2547190;53;20986;-81
2023/02/18 01:10:46;;;;;;;3.62;2.12;;;15.50;66.70;;;;;;2547489;53;20923;-81
2023/02/18 01:13:15;;;;;;;3.78;1.95;;;15.50;66.70;;;;;;2309664;53;20955;-81
2023/02/18 01:15:41;;;;;;;3.45;1.95;;;15.50;66.80;;;;;;2547095;53;21055;-81
2023/02/18 01:18:08;;;;;;;3.37;1.90;;;15.50;66.70;;;;;;2547189;53;20907;-82
2023/02/18 01:20:38;;;;;;;4.37;1.90;;;15.50;66.80;;;;;;2545410;53;20994;-81
2023/02/18 01:23:04;;;;;;;3.20;1.80;;;15.50;66.80;;;;;;2547322;53;20931;-82
2023/02/18 01:25:31;;;;;;;3.00;1.60;;;15.50;66.80;;;;;;2546891;53;20971;-81
2023/02/18 01:27:57;;;;;;;4.80;2.25;;;15.50;66.80;;;;;;2308661;53;21054;-81
2023/02/18 01:30:23;;;;;;;3.17;1.77;;;15.50;66.80;;;;;;2307604;53;21018;-81
2023/02/18 01:32:54;;;;;;;3.08;1.70;;;15.50;66.80;;;;;;2545716;53;21067;-82
2023/02/18 01:35:20;;;;;;;3.50;1.75;;;15.50;66.70;;;;;;2301768;53;20968;-81
2023/02/18 01:37:47;;;;;;;3.55;1.85;;;15.50;66.80;;;;;;2545692;53;20975;-81
2023/02/18 01:40:15;;;;;;;3.03;1.85;;;15.50;66.80;;;;;;2547073;53;21444;-82
2023/02/18 01:42:41;;;;;;;3.25;1.80;;;15.50;66.90;;;;;;2546616;53;21002;-81
2023/02/18 01:46:12;;;;;;;3.50;1.65;;;15.40;66.80;;;;;;2547474;53;20987;-80
2023/02/18 01:49:15;;;;;;;3.22;1.87;;;15.50;66.60;;;;;;2545697;53;21038;-82
2023/02/18 01:51:45;;;;;;;3.40;1.77;;;15.50;66.80;;;;;;2312921;53;20963;-81
2023/02/18 01:54:19;;;;;;;2.60;1.40;;;15.50;66.90;;;;;;2536605;53;21023;-81
2023/02/18 01:56:49;;;;;;;3.90;2.00;;;15.50;66.90;;;;;;2546081;53;21055;-80
2023/02/18 01:59:23;;;;;;;3.40;1.85;;;15.50;67.00;;;;;;2547156;53;20931;-80
2023/02/18 02:01:49;;;;;;;3.20;1.77;;;15.50;66.90;;;;;;2545673;53;20986;-81
2023/02/18 02:04:15;;;;;;;2.83;1.65;;;15.50;67.00;;;;;;2308386;53;21757;-81
2023/02/18 02:06:42;;;;;;;3.40;1.80;;;15.50;67.00;;;;;;2545231;53;20975;-80
2023/02/18 02:09:10;;;;;;;3.08;1.62;;;15.50;67.00;;;;;;2545842;53;21017;-80
2023/02/18 02:15:17;;;;;;;3.67;1.62;;;15.50;67.00;;;;;;2544813;53;21042;-81
2023/02/18 02:23:00;;;;;;;2.85;1.25;;;15.50;66.50;;;;;;2545466;53;21248;-80
2023/02/18 02:28:43;;;;;;;3.70;1.33;;;15.50;66.40;;;;;;2545298;53;20918;-81
2023/02/18 02:37:18;;;;;;;3.45;1.58;;;15.50;66.60;;;;;;2308487;53;20939;-83
2023/02/18 02:46:37;;;;;;;2.78;1.30;;;15.50;66.50;;;;;;2543525;53;20927;-82
2023/02/18 02:49:27;;;;;;;2.50;1.10;;;15.50;66.70;;;;;;2544394;53;21118;-82
2023/02/18 02:52:12;;;;;;;3.25;1.62;;;15.40;67.10;;;;;;2307870;53;20945;-83
2023/02/18 02:54:41;;;;;;;3.28;1.60;;;15.40;67.10;;;;;;2544253;53;20951;-82
2023/02/18 02:57:52;;;;;;;2.50;1.10;;;15.40;67.30;;;;;;2307315;53;20975;-83
2023/02/18 03:00:21;;;;;;;2.42;1.30;;;15.40;66.90;;;;;;2307791;53;20998;-82
2023/02/18 03:03:13;;;;;;;2.70;1.30;;;15.40;67.50;;;;;;2307119;53;20947;-83
2023/02/18 03:09:21;;;;;;;2.53;1.15;;;15.40;67.30;;;;;;2545768;53;21083;-83
2023/02/18 03:14:41;;;;;;;2.20;1.10;;;15.50;67.10;;;;;;2306020;53;20960;-83
2023/02/18 03:17:11;;;;;;;2.45;0.98;;;15.50;67.00;;;;;;2310502;53;20951;-83
2023/02/18 03:19:41;;;;;;;2.20;1.00;;;15.50;67.50;;;;;;2307607;53;20975;-83
2023/02/18 03:22:12;;;;;;;2.60;1.27;;;15.50;67.60;;;;;;2308052;53;20924;-83
2023/02/18 03:24:40;;;;;;;3.08;1.30;;;15.50;67.50;;;;;;2545287;53;21294;-83
2023/02/18 03:27:18;;;;;;;2.97;1.42;;;15.50;67.60;;;;;;2545462;53;21860;-83
2023/02/18 03:29:46;;;;;;;2.67;1.20;;;15.50;67.40;;;;;;2544588;53;21463;-83
2023/02/18 03:32:14;;;;;;;3.10;1.60;;;15.50;67.60;;;;;;2545762;53;20927;-83
2023/02/18 03:34:42;;;;;;;2.87;1.40;;;15.50;67.60;;;;;;2509681;54;21002;-83
2023/02/18 03:37:08;;;;;;;2.90;1.50;;;15.50;67.60;;;;;;2546153;53;20922;-82
2023/02/18 03:39:35;;;;;;;2.70;1.42;;;15.60;67.60;;;;;;2545428;53;21026;-83
2023/02/18 03:42:01;;;;;;;5.25;1.58;;;15.60;67.60;;;;;;2546327;53;20935;-82
2023/02/18 03:44:29;;;;;;;3.20;1.37;;;15.60;67.50;;;;;;2546426;53;20935;-83
2023/02/18 03:46:55;;;;;;;2.92;1.37;;;15.60;67.50;;;;;;2545982;53;20987;-83
2023/02/18 03:49:21;;;;;;;3.15;1.40;;;15.60;67.50;;;;;;2308978;53;20955;-83
2023/02/18 03:51:48;;;;;;;2.60;1.10;;;15.60;67.40;;;;;;2308140;53;21514;-83
2023/02/18 03:54:14;;;;;;;3.75;1.67;;;15.60;67.50;;;;;;2546951;53;21790;-82
2023/02/18 03:56:41;;;;;;;2.70;1.40;;;15.60;67.40;;;;;;2545779;53;20944;-81
2023/02/18 03:59:07;;;;;;;3.22;1.40;;;15.60;67.40;;;;;;2545901;53;20972;-83
2023/02/18 04:01:34;;;;;;;2.70;1.37;;;15.60;67.40;;;;;;2308548;53;21413;-83
2023/02/18 04:04:01;;;;;;;3.58;1.70;;;15.60;67.40;;;;;;2546549;53;20935;-82
2023/02/18 04:06:28;;;;;;;2.92;1.30;;;15.60;67.30;;;;;;2309060;54;21531;-83
2023/02/18 04:08:54;;;;;;;2.60;1.25;;;15.60;67.30;;;;;;2546536;53;20987;-82
2023/02/18 04:11:20;;;;;;;2.75;1.42;;;15.60;67.30;;;;;;2309177;53;21442;-83
2023/02/18 04:13:47;;;;;;;2.65;1.37;;;15.60;67.20;;;;;;2546008;53;20950;-82
2023/02/18 04:16:13;;;;;;;2.60;1.35;;;15.60;67.20;;;;;;2546601;53;20927;-82
2023/02/18 04:18:39;;;;;;;3.15;1.45;;;15.60;67.20;;;;;;2544933;53;21083;-82
2023/02/18 04:21:05;;;;;;;2.45;1.10;;;15.60;67.30;;;;;;2546389;53;21511;-83
2023/02/18 04:23:32;;;;;;;3.03;1.65;;;15.60;67.30;;;;;;2308006;53;21879;-82
2023/02/18 04:25:58;;;;;;;2.40;1.17;;;15.60;67.20;;;;;;2545708;53;20934;-83
2023/02/18 04:28:24;;;;;;;3.45;1.50;;;15.60;67.20;;;;;;2546099;53;20966;-83
2023/02/18 04:30:50;;;;;;;2.67;1.17;;;15.60;68.00;;;;;;2308397;53;20942;-82
2023/02/18 04:33:17;;;;;;;2.70;1.30;;;15.70;67.40;;;;;;2547013;53;20979;-83
2023/02/18 04:35:43;;;;;;;3.33;1.48;;;15.70;67.40;;;;;;2545622;53;20930;-83
2023/02/18 04:38:09;;;;;;;2.65;1.37;;;15.70;67.30;;;;;;2546215;53;21019;-82
2023/02/18 04:40:35;;;;;;;2.80;1.33;;;15.70;67.30;;;;;;2545819;53;21534;-82
2023/02/18 04:43:02;;;;;;;2.62;1.23;;;15.70;67.30;;;;;;2546197;53;21809;-84
2023/02/18 04:45:28;;;;;;;2.35;1.10;;;15.60;67.20;;;;;;2546466;53;21424;-82
2023/02/18 04:47:54;;;;;;;2.53;1.23;;;15.70;67.30;;;;;;2546263;53;21519;-82
2023/02/18 04:50:21;;;;;;;3.03;1.15;;;15.60;67.10;;;;;;2546969;53;20975;-82
2023/02/18 04:52:47;;;;;;;2.97;1.35;;;15.70;67.20;;;;;;2308731;53;20947;-83
2023/02/18 04:55:13;;;;;;;3.50;1.12;;;15.70;67.30;;;;;;2546677;53;21627;-83
2023/02/18 04:57:39;;;;;;;2.70;1.15;;;15.60;67.20;;;;;;2545533;53;20922;-83
2023/02/18 05:00:06;;;;;;;2.53;1.10;;;15.70;67.30;;;;;;2545866;53;20926;-83
2023/02/18 05:02:33;;;;;;;2.75;1.25;;;15.70;67.20;;;;;;2308731;53;21527;-82
2023/02/18 05:04:59;;;;;;;2.60;1.02;;;15.70;67.20;;;;;;2308747;53;21427;-83
2023/02/18 05:07:25;;;;;;;2.75;1.23;;;15.70;67.20;;;;;;2546681;53;21849;-83
2023/02/18 05:09:52;;;;;;;3.03;1.10;;;15.70;67.10;;;;;;2545699;53;20935;-82
2023/02/18 05:12:19;;;;;;;2.53;1.25;;;15.70;67.10;;;;;;2546854;53;20972;-82
2023/02/18 05:14:45;;;;;;;2.67;1.10;;;15.70;67.10;;;;;;2303704;54;20966;-82
2023/02/18 05:17:11;;;;;;;2.20;1.08;;;15.70;67.10;;;;;;2308750;53;20923;-83
2023/02/18 05:19:37;;;;;;;4.03;1.25;;;15.70;67.10;;;;;;2307268;53;20963;-82
2023/02/18 05:22:04;;;;;;;4.18;1.80;;;15.70;67.10;;;;;;2546146;53;20947;-83
2023/02/18 05:24:30;;;;;;;3.15;1.50;;;15.70;67.10;;;;;;2545995;53;20931;-83
2023/02/18 05:26:56;;;;;;;2.85;1.35;;;15.70;67.10;;;;;;2308530;53;21026;-82
2023/02/18 05:29:22;;;;;;;2.60;1.37;;;15.70;67.10;;;;;;2546555;53;21491;-83
2023/02/18 05:31:49;;;;;;;1.90;0.85;;;15.70;67.10;;;;;;2546326;53;20951;-83
2023/02/18 05:34:15;;;;;;;2.67;1.27;;;15.70;67.10;;;;;;2546590;53;20939;-83
2023/02/18 05:36:41;;;;;;;2.30;1.20;;;15.70;67.00;;;;;;2545439;53;21046;-83
2023/02/18 05:39:08;;;;;;;2.85;1.45;;;15.70;67.00;;;;;;2545961;53;21038;-83
2023/02/18 05:41:34;;;;;;;2.80;1.25;;;15.70;67.00;;;;;;2545744;53;20919;-83
2023/02/18 05:46:45;;;;;;;1.73;0.85;;;15.70;67.00;;;;;;2545716;53;20923;-83
2023/02/18 05:49:11;;;;;;;2.10;1.00;;;15.70;67.00;;;;;;2308776;53;21031;-82
2023/02/18 05:51:37;;;;;;;2.12;0.90;;;15.70;67.00;;;;;;2542222;53;21019;-82
2023/02/18 05:54:04;;;;;;;2.55;1.30;;;15.90;67.20;;;;;;2538219;53;20983;-82
2023/02/18 05:56:30;;;;;;;2.55;1.20;;;15.70;66.90;;;;;;2302139;53;21420;-83
2023/02/18 05:58:56;;;;;;;2.30;1.12;;;15.70;66.90;;;;;;2308139;53;20943;-83
2023/02/18 06:01:22;;;;;;;2.60;1.20;;;15.70;67.00;;;;;;2308847;53;20962;-83
2023/02/18 06:03:49;;;;;;;2.65;1.10;;;15.70;66.80;;;;;;2545871;53;21037;-83
2023/02/18 06:06:15;;;;;;;2.80;1.20;;;15.70;66.80;;;;;;2546361;53;20923;-82
2023/02/18 06:08:41;;;;;;;2.70;1.15;;;15.70;66.80;;;;;;2545342;53;21050;-84
2023/02/18 06:11:07;;;;;;;2.20;1.02;;;15.70;66.90;;;;;;2545990;53;20963;-82
2023/02/18 06:13:34;;;;;;;2.83;0.93;;;15.70;66.80;;;;;;2308285;53;21003;-83
2023/02/18 06:16:00;;;;;;;2.78;0.90;;;15.70;66.80;;;;;;2546135;53;20947;-83
2023/02/18 06:18:26;;;;;;;2.33;0.90;;;15.80;66.90;;;;;;2546451;53;20922;-83
2023/02/18 06:20:52;;;;;;;2.28;1.10;;;15.70;66.80;;;;;;2307726;53;21003;-83
2023/02/18 06:23:19;;;;;;;2.10;0.90;;;15.70;66.80;;;;;;2546993;53;20991;-82
2023/02/18 06:25:47;;;;;;;2.45;0.90;;;15.70;66.80;;;;;;2308158;53;20989;-83
2023/02/18 06:28:13;;;;;;;2.40;1.00;;;15.80;66.80;;;;;;2545970;53;21748;-83
2023/02/18 06:30:40;;;;;;;1.67;0.90;;;15.80;66.90;;;;;;2307762;53;22127;-83
2023/02/18 06:33:06;;;;;;;1.85;0.82;;;15.70;66.70;;;;;;2546037;53;20935;-82
2023/02/18 06:35:32;;;;;;;3.12;0.93;;;15.80;66.80;;;;;;2545610;53;20963;-82
2023/02/18 06:37:59;;;;;;;1.85;0.95;;;15.80;66.80;;;;;;2308259;53;21070;-83
2023/02/18 06:40:25;;;;;;;2.17;0.95;;;15.70;66.60;;;;;;2546488;53;20994;-83
2023/02/18 06:42:52;;;;;;;1.90;0.73;;;15.80;66.70;;;;;;2545676;53;20982;-83
2023/02/18 06:45:18;;;;;;;2.97;1.10;;;15.70;66.60;;;;;;2547199;53;20926;-82
2023/02/18 06:47:44;;;;;;;2.33;1.08;;;15.80;66.70;;;;;;2545003;53;20979;-82
2023/02/18 06:50:10;;;;;;;1.98;0.85;;;15.70;66.50;;;;;;2546306;53;21026;-84
2023/02/18 06:52:37;;;;;;;2.10;0.88;;;15.70;66.60;;;;;;2546286;53;20912;-84
2023/02/18 06:55:04;;;;;;;3.20;0.98;;;15.70;66.60;;;;;;2308367;53;21309;-83
2023/02/18 06:57:30;;;;;;;2.42;1.00;;;15.70;66.50;;;;;;2308297;53;21783;-83
2023/02/18 06:59:57;;;;;;;2.62;0.85;;;15.70;66.50;;;;;;2546213;53;20947;-80
2023/02/18 07:02:23;;;;;;;3.67;1.05;;;15.70;66.50;;;;;;2309344;53;21406;-81
2023/02/18 07:04:50;;;;;;;2.37;1.10;;;15.70;66.60;;;;;;2545885;53;20943;-80
2023/02/18 07:07:16;;;;;;;2.45;0.82;;;15.70;66.50;;;;;;2546097;53;20929;-83
2023/02/18 07:09:42;;;;;;;2.53;0.90;;;15.70;66.50;;;;;;2545398;53;20927;-80
2023/02/18 07:12:08;;;;;;;2.30;1.00;;;15.70;66.50;;;;;;2308563;53;20995;-80
2023/02/18 07:14:34;;;;;;;1.70;0.80;;;15.70;66.60;;;;;;2545338;53;20966;-80
2023/02/18 07:17:01;;;;;;;2.20;0.80;;;15.70;66.60;;;;;;2546166;53;21098;-80
2023/02/18 07:19:27;;;;;;;2.42;1.10;;;15.80;66.80;;;;;;2308985;53;20967;-81
2023/02/18 07:21:56;;;;;;;4.40;0.98;;;15.70;66.60;;;;;;2545912;53;20947;-79
2023/02/18 07:24:22;;;;;;;2.15;0.95;;;15.70;66.70;;;;;;2308859;53;20935;-81
2023/02/18 07:26:49;;;;;;;2.20;0.88;;;15.80;66.80;;;;;;2546097;53;21079;-83
2023/02/18 07:29:15;;;;;;;4.05;1.30;;;15.70;66.70;;;;;;2546388;53;20987;-81
2023/02/18 07:31:41;;;;;;;3.37;1.20;;;15.80;66.80;;;;;;2545660;53;20935;-80
2023/02/18 07:34:07;;;;;;;2.83;1.10;;;15.80;66.70;;;;;;2308613;53;21566;-81
2023/02/18 07:36:34;;;;;;;2.80;0.80;;;15.80;66.80;;;;;;2308732;53;20998;-81
2023/02/18 07:39:00;;;;;;;4.75;1.20;;;15.80;67.60;;;;;;2546887;53;20959;-81
2023/02/18 07:41:26;;;;;;;3.08;1.40;;;15.80;66.80;;;;;;2547021;53;21466;-81
2023/02/18 07:43:52;;;;;;;3.15;1.40;;;15.80;66.90;;;;;;2546523;53;20955;-81
2023/02/18 07:46:19;;;;;;;2.70;1.10;;;15.80;66.90;;;;;;2547176;53;20935;-80
2023/02/18 07:48:45;;;;;;;3.10;1.33;;;15.80;66.90;;;;;;2546291;53;20943;-80
2023/02/18 07:51:11;;;;;;;3.03;1.20;;;15.70;66.80;;;;;;2547408;53;20946;-81
2023/02/18 07:53:38;;;;;;;2.65;1.20;;;15.80;66.90;;;;;;2309331;53;20939;-81
2023/02/18 07:56:04;;;;;;;2.65;0.90;;;15.80;66.90;;;;;;2309965;53;21761;-81
2023/02/18 07:58:33;;;;;;;2.70;1.20;;;15.80;66.90;;;;;;2548252;53;20930;-81
2023/02/18 08:00:59;;;;;;;3.15;1.40;;;15.90;66.80;;;;;;2310193;53;20931;-81
2023/02/18 08:03:29;;;;;;;2.75;1.20;;;15.90;66.90;;;;;;2311503;53;20954;-80
2023/02/18 08:05:55;;;;;;;3.20;1.10;;;15.90;66.80;;;;;;2549313;53;21939;-81
2023/02/18 08:08:24;;;;;;;2.92;1.10;;;15.90;66.90;;;;;;2549716;53;21026;-81
2023/02/18 08:10:50;;;;;;;3.72;1.35;;;15.90;66.90;;;;;;2547355;53;21133;-81
2023/02/18 08:13:16;;;;;;;4.03;1.20;;;15.90;67.00;;;;;;2547219;53;21670;-82
2023/02/18 08:15:42;;;;;;;2.50;1.10;;;15.90;67.00;;;;;;2308745;53;21022;-82
2023/02/18 08:18:13;;;;;;;3.20;1.30;;;16.00;67.10;;;;;;2546828;53;21006;-81
2023/02/18 08:20:40;;;;;;;3.70;1.40;;;16.00;66.90;;;;;;2309210;53;20927;-82
2023/02/18 08:23:06;;;;;;;3.30;1.25;;;16.00;67.10;;;;;;2547346;53;20971;-81
2023/02/18 08:25:32;;;;;;;3.72;1.23;;;16.00;67.00;;;;;;2546898;53;20954;-81
2023/02/18 08:27:59;;;;;;;2.90;0.90;;;16.00;67.00;;;;;;2546061;53;21006;-81
2023/02/18 08:30:25;;;;;;;2.95;1.17;;;16.00;67.00;;;;;;2546483;53;20935;-81
2023/02/18 08:32:52;;;;;;;3.05;1.30;;;16.10;67.10;;;;;;2308525;53;21682;-82
2023/02/18 08:35:18;;;;;;;5.05;1.70;;;16.10;67.10;;;;;;2546396;53;21479;-82
2023/02/18 08:37:44;;;;;;;5.03;1.40;;;16.10;67.20;;;;;;2545643;53;21591;-82
2023/02/18 08:40:11;;;;;;;4.65;1.48;;;16.10;67.30;;;;;;2308504;53;21006;-82
2023/02/18 08:42:38;;;;;;;5.72;2.17;;;16.10;67.30;;;;;;2545661;53;20939;-81
2023/02/18 08:45:04;;;;;;;6.07;3.37;;;16.20;67.20;;;;;;2546742;53;21098;-82
2023/02/18 08:47:30;;;;;;;6.87;3.03;;;16.20;68.00;;;;;;2546220;53;20907;-81
2023/02/18 08:49:57;;;;;;;4.12;2.28;;;16.30;67.20;;;;;;2307546;53;21847;-82
2023/02/18 08:52:23;;;;;;;3.62;1.80;;;16.30;67.20;;;;;;2546113;53;21784;-82
2023/02/18 08:54:49;;;;;;;4.03;2.00;;;16.30;67.10;;;;;;2306866;53;21925;-80
2023/02/18 08:57:16;;;;;;;2.60;1.23;;;16.30;67.10;;;;;;2306127;53;20995;-81
2023/02/18 08:59:42;;;;;;;2.53;1.20;;;16.40;67.30;;;;;;2308025;53;21325;-82
2023/02/18 09:02:11;;;;;;;2.75;1.10;;;16.40;67.20;;;;;;2546239;53;21022;-83
2023/02/18 09:04:38;;;;;;;2.08;0.82;;;16.40;67.00;;;;;;2308500;53;21731;-81
2023/02/18 09:07:04;;;;;;;3.12;1.50;;;16.40;66.90;;;;;;2546606;53;20999;-81
2023/02/18 09:09:30;;;;;;;3.03;1.25;;;16.50;66.90;;;;;;2304999;53;20939;-81
2023/02/18 09:11:57;;;;;;;2.85;1.23;;;16.50;66.80;;;;;;2545784;53;20931;-81
2023/02/18 09:14:23;;;;;;;2.75;1.00;;;16.50;66.70;;;;;;2309162;53;20962;-81
2023/02/18 09:16:49;;;;;;;2.65;1.20;;;16.50;66.60;;;;;;2545597;53;21030;-81
2023/02/18 09:19:16;;;;;;;2.92;1.10;;;16.50;66.60;;;;;;2309106;53;21006;-82
2023/02/18 09:21:43;;;;;;;3.05;0.90;;;16.50;66.60;;;;;;2545931;53;21464;-81
2023/02/18 09:24:09;;;;;;;2.28;1.10;;;16.50;66.60;;;;;;2308601;53;21813;-81
2023/02/18 09:26:39;;;;;;;3.22;1.30;;;16.60;66.60;;;;;;2308447;53;21031;-81
2023/02/18 09:29:05;;;;;;;2.80;1.20;;;16.60;67.30;;;;;;2308859;53;20952;-81
2023/02/18 09:31:32;;;;;;;2.80;1.05;;;16.60;66.60;;;;;;2541692;53;20975;-82
2023/02/18 09:34:01;;;;;;;3.03;1.30;;;16.60;66.60;;;;;;2546044;53;21018;-82
2023/02/18 09:36:27;;;;;;;2.85;1.20;;;16.60;66.60;;;;;;2546363;53;20919;-82
2023/02/18 09:38:53;;;;;;;4.00;1.45;;;16.60;66.50;;;;;;2545053;53;21999;-81
2023/02/18 09:42:34;;;;;;;3.65;1.10;;;16.70;66.50;;;;;;2308654;53;21018;-81
2023/02/18 09:45:01;;;;;;;4.55;1.27;;;16.70;65.90;;;;;;2536656;53;22116;-81
2023/02/18 09:47:39;;;;;;;3.97;1.10;;;16.70;66.30;;;;;;2297114;53;20935;-81
2023/02/18 09:50:21;;;;;;;2.25;1.10;;;16.70;66.00;;;;;;2295719;53;20963;-81
2023/02/18 09:52:48;;;;;;;2.45;0.88;;;16.70;66.20;;;;;;2295648;53;20938;-82
2023/02/18 09:55:26;;;;;;;2.78;1.12;;;16.70;66.50;;;;;;2531566;53;20987;-81
2023/02/18 09:58:06;;;;;;;2.72;1.25;;;16.80;66.30;;;;;;2530288;53;21023;-81
2023/02/18 10:00:43;;;;;;;2.22;1.10;;;16.80;66.30;;;;;;2295834;53;21362;-82
2023/02/18 10:03:22;;;;;;;2.83;1.02;;;16.80;66.00;;;;;;2295799;53;20958;-81
2023/02/18 10:06:01;;;;;;;2.78;1.08;;;16.90;66.40;;;;;;2530377;53;21985;-82
2023/02/18 10:08:44;;;;;;;2.75;1.15;;;16.90;66.40;;;;;;2531398;53;21050;-81
2023/02/18 10:11:29;;;;;;;2.70;1.15;;;16.90;66.00;;;;;;2531409;53;22099;-81
2023/02/18 10:13:56;;;;;;;2.92;1.10;;;17.00;65.70;;;;;;2530414;53;21023;-82
2023/02/18 10:16:23;;;;;;;2.58;0.98;;;17.00;66.10;;;;;;2531903;53;21022;-81
2023/02/18 10:18:56;;;;;;;2.75;1.15;;;17.00;66.00;;;;;;2295195;53;21247;-81
2023/02/18 10:21:34;;;;;;;2.55;1.10;;;17.00;65.60;;;;;;2531675;53;21062;-81
2023/02/18 10:24:31;;;;;;;1.77;0.70;;;17.10;65.50;;;;;;2527058;53;20939;-82
2023/02/18 10:26:57;;;;;;;2.47;0.80;;;17.10;65.00;;;;;;2527208;53;21533;-81
2023/02/18 10:29:24;;;;;;;3.92;1.10;;;17.10;65.70;;;;;;2527791;53;20947;-83
2023/02/18 10:32:14;;;;;;;2.50;1.10;;;17.10;65.60;;;;;;2527210;53;20939;-81
2023/02/18 10:34:50;;;;;;;1.95;0.77;;;17.20;65.00;;;;;;2527333;53;20994;-83
2023/02/18 10:40:57;;;;;;;2.80;1.00;;;17.20;65.30;;;;;;2529202;53;21019;-82
2023/02/18 10:45:08;;;;;;;2.40;0.82;;;17.30;64.90;;;;;;2528276;53;20963;-82
2023/02/18 10:47:42;;;;;;;2.58;1.00;;;17.30;64.70;;;;;;2527081;53;20963;-81
2023/02/18 10:50:17;;;;;;;2.65;1.08;;;17.30;65.60;;;;;;2527423;53;20958;-81
2023/02/18 10:52:48;;;;;;;1.85;0.75;;;17.30;65.30;;;;;;2527973;53;21066;-81
2023/02/18 10:55:17;;;;;;;2.25;0.93;;;17.40;65.40;;;;;;2292534;53;20943;-81
2023/02/18 10:57:51;;;;;;;2.58;0.80;;;17.40;65.50;;;;;;2527180;53;20987;-81
2023/02/18 11:00:27;;;;;;;1.80;0.77;;;17.40;65.20;;;;;;2529460;53;22120;-84
2023/02/18 11:04:03;;;;;;;3.55;0.90;;;17.40;65.50;;;;;;2526240;53;21849;-84
2023/02/18 11:06:37;;;;;;;2.37;0.80;;;17.50;64.50;;;;;;2295688;53;20978;-82
2023/02/18 11:09:03;;;;;;;2.47;0.80;;;17.60;65.40;;;;;;2528555;53;20995;-82
2023/02/18 11:11:37;;;;;;;2.90;0.80;;;17.50;65.40;;;;;;2528986;53;20999;-81
2023/02/18 11:14:05;;;;;;;2.45;1.00;;;17.60;64.80;;;;;;2528546;53;21067;-81
2023/02/18 11:16:42;;;;;;;3.58;1.00;;;17.60;65.20;;;;;;2528211;53;21069;-81
2023/02/18 11:19:33;;;;;;;2.35;0.90;;;17.60;64.70;;;;;;2528261;53;21075;-81
2023/02/18 11:22:18;;;;;;;3.15;1.15;;;17.70;64.50;;;;;;2493338;54;20943;-80
2023/02/18 11:24:47;;;;;;;2.45;1.00;;;17.70;64.50;;;;;;2292610;53;21062;-81
2023/02/18 11:27:29;;;;;;;3.00;1.30;;;17.70;65.20;;;;;;2527777;53;21102;-79
2023/02/18 11:30:00;;;;;;;;;;;17.80;65.00;;;;;;2530299;53;21054;-80
2023/02/18 11:32:27;;;;;;;2.87;1.10;;;17.80;64.40;;;;;;2528348;53;20115;-80
2023/02/18 11:34:54;;;;;;;2.47;1.25;;;17.90;65.30;;;;;;2291246;53;22071;-80
2023/02/18 11:37:20;;;;;;;2.42;1.12;;;17.80;65.00;;;;;;2528375;53;21018;-81
2023/02/18 11:39:49;;;;;;;2.78;1.30;;;17.80;65.00;;;;;;2527050;53;20979;-81
2023/02/18 11:42:17;;;;;;;2.67;1.20;;;17.80;64.90;;;;;;2529436;53;20954;-81
2023/02/18 11:44:57;;;;;;;3.33;1.35;;;17.90;64.90;;;;;;2527140;53;20940;-82
2023/02/18 11:47:26;;;;;;;2.90;1.30;;;17.90;64.30;;;;;;2527751;53;22329;-82
2023/02/18 11:53:27;;;;;;;2.85;1.33;;;17.90;64.50;;;;;;2526831;53;20999;-81
2023/02/18 11:55:58;;;;;;;2.87;0.95;;;18.00;63.80;;;;;;2291172;54;21594;-81
2023/02/18 11:58:25;;;;;;;2.58;1.12;;;18.00;64.70;;;;;;2527052;53;21361;-80
2023/02/18 12:00:55;;;;;;;2.65;1.12;;;18.00;64.60;;;;;;2526901;53;21276;-81
2023/02/18 12:03:41;;;;;;;2.75;1.37;;;18.00;64.50;;;;;;2527959;53;21035;-81
2023/02/18 12:06:19;;;;;;;2.85;1.40;;;18.00;64.00;;;;;;2293305;53;21375;-82
2023/02/18 12:08:55;;;;;;;3.08;1.30;;;18.00;64.40;;;;;;2528112;53;20970;-82
2023/02/18 12:11:41;;;;;;;2.03;1.00;;;18.00;64.20;;;;;;2528554;53;21062;-81
2023/02/18 12:14:40;;;;;;;2.22;1.02;;;18.10;64.00;;;;;;2529236;53;21062;-82
2023/02/18 12:17:45;;;;;;;2.22;0.85;;;18.10;63.60;;;;;;2528660;53;21003;-82
2023/02/18 12:20:38;;;;;;;2.65;1.02;;;18.10;63.70;;;;;;2530033;53;20958;-82
2023/02/18 12:25:47;;;;;;;2.25;0.95;;;18.20;63.70;;;;;;2294967;53;21007;-81
2023/02/18 12:28:50;;;;;;;2.33;0.95;;;18.20;63.40;;;;;;2532927;53;20982;-82
2023/02/18 12:32:10;;;;;;;1.67;0.77;;;18.20;63.50;;;;;;2531695;53;20974;-81
2023/02/18 12:34:52;;;;;;;2.15;0.90;;;18.20;64.00;;;;;;2294932;53;21068;-80
2023/02/18 12:39:00;;;;;;;2.40;1.00;;;18.30;63.70;;;;;;2525319;53;21026;-81
2023/02/18 12:45:10;;;;;;;3.97;1.33;;;18.30;63.20;;;;;;2529540;53;20963;-82
2023/02/18 12:48:08;;;;;;;2.62;1.00;;;18.30;63.00;;;;;;2527757;53;21093;-82
2023/02/18 12:54:27;;;;;;;3.17;1.00;;;18.40;62.90;;;;;;2294463;53;21066;-82
2023/02/18 12:59:57;;;;;;;1.52;0.70;;;18.30;62.70;;;;;;2527346;53;21074;-83
2023/02/18 13:06:52;;;;;;;2.17;1.00;;;18.40;63.50;;;;;;2531019;53;20946;-82
2023/02/18 13:09:44;;;;;;;1.60;0.70;;;18.40;62.60;;;;;;2529072;53;21081;-81
2023/02/18 13:12:19;;;;;;;1.80;0.82;;;18.50;63.20;;;;;;2527515;53;21002;-81
2023/02/18 13:14:59;;;;;;;2.05;0.80;;;18.40;63.60;;;;;;2526260;53;20935;-81
2023/02/18 13:17:28;;;;;;;2.80;1.05;;;18.40;63.10;;;;;;2528789;53;20991;-80
2023/02/18 13:19:56;;;;;;;2.12;1.00;;;18.40;63.80;;;;;;2526391;53;20950;-81
2023/02/18 13:22:23;;;;;;;1.70;0.70;;;18.40;63.80;;;;;;2527985;53;22329;-81
2023/02/18 13:24:50;;;;;;;2.60;0.93;;;18.50;64.00;;;;;;2527624;53;22335;-80
2023/02/18 13:27:32;;;;;;;1.65;0.82;;;18.50;63.70;;;;;;2527268;53;21038;-80
2023/02/18 13:33:54;;;;;;;3.12;0.90;;;18.50;63.10;;;;;;2527482;53;21011;-82
2023/02/18 13:36:50;;;;;;;2.22;0.82;;;18.50;62.10;;;;;;2525659;53;21474;-80
2023/02/18 13:39:18;;;;;;;2.12;0.85;;;18.50;62.40;;;;;;2523225;53;20939;-81
2023/02/18 13:41:45;;;;;;;2.10;1.10;;;18.50;63.30;;;;;;2525548;53;21011;-81
2023/02/18 13:45:22;;;;;;;2.37;0.95;;;18.50;63.00;;;;;;2526497;53;20987;-81
2023/02/18 13:47:49;;;;;;;2.92;0.82;;;18.50;61.90;;;;;;2288715;53;21063;-81
2023/02/18 13:50:26;;;;;;;2.10;0.90;;;18.50;63.00;;;;;;2525234;53;21027;-80
2023/02/18 13:53:27;;;;;;;1.77;0.75;;;18.50;62.90;;;;;;2526196;53;20947;-81
2023/02/18 13:56:19;;;;;;;1.87;0.80;;;18.30;61.50;;;;;;2526880;53;21042;-81
2023/02/18 13:58:59;;;;;;;1.92;0.60;;;18.50;62.00;;;;;;2526115;53;20962;-80
2023/02/18 14:01:43;;;;;;;2.03;0.90;;;18.50;62.60;;;;;;2518964;53;21099;-81
2023/02/18 14:05:51;;;;;;;2.10;0.80;;;18.50;61.70;;;;;;2526801;53;21058;-80
2023/02/18 14:10:42;;;;;;;3.35;0.90;;;18.50;61.20;;;;;;2525994;53;20979;-81
2023/02/18 14:13:23;;;;;;;2.15;0.70;;;18.50;61.50;;;;;;2526410;53;20971;-82
2023/02/18 14:15:54;;;;;;;2.17;0.80;;;18.50;61.40;;;;;;2525768;53;21326;-80
2023/02/18 14:18:25;;;;;;;1.77;0.70;;;18.50;61.50;;;;;;2528077;53;20938;-81